createdAt,value
2022-09-13T00:00:59.792Z,4.97
2022-09-13T00:02:31.780Z,5.80
2022-09-13T00:04:04.283Z,5.10
2022-09-13T00:05:37.376Z,5.20
2022-09-13T00:07:08.972Z,4.90
2022-09-13T00:08:41.608Z,5.37
2022-09-13T00:10:13.251Z,4.87
2022-09-13T00:11:44.903Z,5.17
2022-09-13T00:13:17.368Z,5.20
2022-09-13T00:14:49.041Z,5.03
2022-09-13T00:16:22.817Z,5.17
2022-09-13T00:17:54.587Z,4.50
2022-09-13T00:19:26.600Z,4.47
2022-09-13T00:21:13.878Z,5.20
2022-09-13T00:22:45.770Z,4.93
2022-09-13T00:24:17.430Z,4.37
2022-09-13T00:25:49.038Z,5.17
2022-09-13T00:27:20.727Z,4.97
2022-09-13T00:28:54.530Z,4.87
2022-09-13T00:30:26.194Z,4.63
2022-09-13T00:31:58.000Z,5.10
2022-09-13T00:33:29.852Z,4.83
2022-09-13T00:35:03.534Z,4.80
2022-09-13T00:36:35.183Z,4.67
2022-09-13T00:38:06.977Z,4.90
2022-09-13T00:39:38.839Z,4.77
2022-09-13T00:41:13.574Z,4.30
2022-09-13T00:42:45.193Z,4.63
2022-09-13T00:44:55.135Z,4.43
2022-09-13T00:46:45.440Z,5.10
2022-09-13T00:48:25.530Z,4.63
2022-09-13T00:50:04.223Z,4.83
2022-09-13T00:51:36.410Z,4.43
2022-09-13T00:53:25.030Z,4.90
2022-09-13T00:55:04.895Z,4.70
2022-09-13T00:56:45.175Z,4.80
2022-09-13T00:58:20.130Z,5.00
2022-09-13T01:00:12.047Z,4.80
2022-09-13T01:01:49.489Z,5.00
2022-09-13T01:03:23.594Z,4.80
2022-09-13T01:04:55.724Z,4.50
2022-09-13T01:06:30.793Z,4.60
2022-09-13T01:08:03.850Z,4.47
2022-09-13T01:09:37.998Z,4.33
2022-09-13T01:11:18.847Z,4.50
2022-09-13T01:13:10.998Z,4.40
2022-09-13T01:14:43.943Z,4.53
2022-09-13T01:16:15.662Z,4.83
2022-09-13T01:17:49.156Z,5.17
2022-09-13T01:19:20.930Z,4.70
2022-09-13T01:21:13.947Z,4.87
2022-09-13T01:22:56.204Z,5.17
2022-09-13T01:24:54.697Z,5.00
2022-09-13T01:26:48.224Z,4.50
2022-09-13T01:28:55.804Z,5.13
2022-09-13T01:31:02.593Z,5.03
2022-09-13T01:33:16.448Z,4.73
2022-09-13T01:35:14.173Z,4.60
2022-09-13T01:37:01.508Z,4.80
2022-09-13T01:38:53.425Z,4.60
2022-09-13T01:40:32.916Z,4.90
2022-09-13T01:42:24.010Z,4.40
2022-09-13T01:44:37.497Z,5.10
2022-09-13T01:46:18.921Z,4.27
2022-09-13T01:48:17.128Z,4.70
2022-09-13T01:50:15.440Z,4.47
2022-09-13T01:52:14.907Z,4.43
2022-09-13T01:53:52.257Z,4.47
2022-09-13T01:55:39.925Z,4.20
2022-09-13T01:57:46.442Z,4.70
2022-09-13T01:59:25.718Z,4.40
2022-09-13T02:01:18.292Z,4.60
2022-09-13T02:03:04.121Z,4.13
2022-09-13T02:04:42.977Z,4.47
2022-09-13T02:06:21.872Z,4.80
2022-09-13T02:08:01.960Z,4.10
2022-09-13T02:09:39.501Z,4.30
2022-09-13T02:11:13.705Z,4.80
2022-09-13T02:12:48.129Z,5.00
2022-09-13T02:14:25.414Z,4.53
2022-09-13T02:16:05.234Z,4.80
2022-09-13T02:17:41.481Z,3.90
2022-09-13T02:19:36.409Z,4.00
2022-09-13T02:21:27.001Z,3.93
2022-09-13T02:23:03.108Z,3.90
2022-09-13T02:24:39.422Z,4.33
2022-09-13T02:26:14.406Z,3.43
2022-09-13T02:27:51.517Z,3.90
2022-09-13T02:29:25.940Z,3.67
2022-09-13T02:30:59.139Z,3.97
2022-09-13T02:32:37.070Z,3.60
2022-09-13T02:34:15.166Z,3.67
2022-09-13T02:35:53.678Z,4.17
2022-09-13T02:37:27.417Z,4.10
2022-09-13T02:39:12.675Z,3.97
2022-09-13T02:40:53.236Z,3.53
2022-09-13T02:42:36.328Z,4.17
2022-09-13T02:44:13.141Z,3.97
2022-09-13T02:45:56.755Z,3.90
2022-09-13T02:47:58.419Z,3.60
2022-09-13T02:49:52.951Z,4.00
2022-09-13T02:51:38.272Z,3.97
2022-09-13T02:53:34.250Z,4.40
2022-09-13T02:55:18.552Z,4.00
2022-09-13T02:56:53.698Z,3.80
2022-09-13T02:59:12.010Z,3.70
2022-09-13T03:00:45.124Z,4.47
2022-09-13T03:02:21.899Z,4.57
2022-09-13T03:03:56.448Z,4.00
2022-09-13T03:05:28.229Z,4.17
2022-09-13T03:07:00.605Z,4.57
2022-09-13T03:08:32.920Z,4.13
2022-09-13T03:10:11.816Z,4.63
2022-09-13T03:11:58.755Z,4.20
2022-09-13T03:13:43.104Z,4.47
2022-09-13T03:15:34.041Z,3.90
2022-09-13T03:17:14.108Z,3.80
2022-09-13T03:19:17.320Z,3.80
2022-09-13T03:20:54.775Z,3.70
2022-09-13T03:22:48.434Z,4.30
2022-09-13T03:24:37.845Z,4.00
2022-09-13T03:26:36.613Z,3.83
2022-09-13T03:28:21.828Z,3.80
2022-09-13T03:30:01.519Z,3.60
2022-09-13T03:31:50.121Z,4.17
2022-09-13T03:33:33.953Z,3.90
2022-09-13T03:35:20.624Z,3.57
2022-09-13T03:37:20.564Z,4.00
2022-09-13T03:39:00.391Z,3.90
2022-09-13T03:40:49.785Z,4.30
2022-09-13T03:42:43.792Z,3.77
2022-09-13T03:44:19.638Z,4.10
2022-09-13T03:45:59.466Z,3.87
2022-09-13T03:47:34.028Z,4.30
2022-09-13T03:49:10.422Z,4.40
2022-09-13T03:50:43.219Z,3.80
2022-09-13T03:52:14.886Z,3.93
2022-09-13T03:53:55.529Z,4.40
2022-09-13T03:55:27.783Z,3.80
2022-09-13T03:57:13.003Z,4.00
2022-09-13T03:58:45.364Z,3.80
2022-09-13T04:00:18.173Z,3.90
2022-09-13T04:01:49.857Z,3.90
2022-09-13T04:03:21.562Z,4.10
2022-09-13T04:04:53.406Z,4.13
2022-09-13T04:06:25.349Z,4.17
2022-09-13T04:07:57.033Z,4.07
2022-09-13T04:09:28.838Z,3.90
2022-09-13T04:11:01.499Z,3.90
2022-09-13T04:12:33.172Z,4.20
2022-09-13T04:14:05.232Z,3.93
2022-09-13T04:15:36.861Z,3.97
2022-09-13T04:17:08.532Z,4.10
2022-09-13T04:18:40.423Z,3.70
2022-09-13T04:20:12.027Z,3.90
2022-09-13T04:21:44.142Z,4.27
2022-09-13T04:23:15.751Z,4.37
2022-09-13T04:24:47.439Z,4.07
2022-09-13T04:26:19.049Z,4.17
2022-09-13T04:28:00.850Z,3.77
2022-09-13T04:29:33.316Z,4.40
2022-09-13T04:31:05.206Z,3.40
2022-09-13T04:32:36.799Z,3.97
2022-09-13T04:34:08.461Z,4.03
2022-09-13T04:35:40.842Z,3.93
2022-09-13T04:37:12.489Z,3.87
2022-09-13T04:38:46.295Z,3.90
2022-09-13T04:40:18.077Z,3.33
2022-09-13T04:41:51.875Z,3.67
2022-09-13T04:43:24.205Z,3.90
2022-09-13T04:44:55.856Z,3.40
2022-09-13T04:46:28.775Z,3.97
2022-09-13T04:48:00.392Z,4.10
2022-09-13T04:49:32.034Z,3.83
2022-09-13T04:51:04.885Z,4.17
2022-09-13T04:52:36.525Z,4.10
2022-09-13T04:54:14.571Z,3.90
2022-09-13T04:55:47.666Z,3.53
2022-09-13T04:57:19.360Z,3.93
2022-09-13T04:58:51.814Z,3.80
2022-09-13T05:00:26.127Z,3.70
2022-09-13T05:01:57.803Z,3.57
2022-09-13T05:03:31.251Z,3.77
2022-09-13T05:05:03.030Z,4.17
2022-09-13T05:06:34.994Z,3.90
2022-09-13T05:08:06.718Z,4.00
2022-09-13T05:09:38.377Z,3.40
2022-09-13T05:11:10.325Z,3.67
2022-09-13T05:12:41.928Z,3.53
2022-09-13T05:14:13.660Z,3.90
2022-09-13T05:15:46.483Z,4.10
2022-09-13T05:17:18.143Z,4.03
2022-09-13T05:18:50.585Z,3.93
2022-09-13T05:20:22.289Z,3.80
2022-09-13T05:21:53.906Z,3.90
2022-09-13T05:23:27.362Z,3.93
2022-09-13T05:24:59.018Z,4.20
2022-09-13T05:26:31.473Z,4.70
2022-09-13T05:28:03.150Z,3.73
2022-09-13T05:29:34.794Z,4.23
2022-09-13T05:31:07.919Z,4.20
2022-09-13T05:32:39.577Z,4.17
2022-09-13T05:34:14.438Z,3.60
2022-09-13T05:35:46.070Z,4.23
2022-09-13T05:37:18.542Z,4.03
2022-09-13T05:39:06.478Z,4.53
2022-09-13T05:40:44.039Z,4.37
2022-09-13T05:42:15.714Z,3.93
2022-09-13T05:43:47.423Z,4.13
2022-09-13T05:45:19.060Z,4.37
2022-09-13T05:46:50.738Z,3.67
2022-09-13T05:48:22.342Z,4.73
2022-09-13T05:50:11.092Z,3.90
2022-09-13T05:51:45.480Z,4.33
2022-09-13T05:53:17.134Z,4.00
2022-09-13T05:54:48.752Z,3.80
2022-09-13T05:56:22.664Z,4.00
2022-09-13T05:57:54.247Z,4.03
2022-09-13T05:59:25.950Z,4.27
2022-09-13T06:00:58.014Z,3.40
2022-09-13T06:02:31.175Z,3.53
2022-09-13T06:04:02.882Z,4.00
2022-09-13T06:05:34.543Z,4.00
2022-09-13T06:07:06.139Z,4.30
2022-09-13T06:08:37.881Z,3.60
2022-09-13T06:10:11.067Z,3.77
2022-09-13T06:11:42.700Z,3.70
2022-09-13T06:13:14.316Z,4.10
2022-09-13T06:14:45.974Z,4.20
2022-09-13T06:16:17.853Z,3.43
2022-09-13T06:17:49.525Z,3.50
2022-09-13T06:19:21.182Z,3.80
2022-09-13T06:21:00.195Z,3.20
2022-09-13T06:22:33.357Z,3.20
2022-09-13T06:24:05.340Z,3.60
2022-09-13T06:25:37.751Z,3.50
2022-09-13T06:27:10.391Z,3.60
2022-09-13T06:28:42.503Z,3.70
2022-09-13T06:30:15.495Z,3.90
2022-09-13T06:31:47.223Z,3.53
2022-09-13T06:33:18.865Z,3.13
2022-09-13T06:34:50.485Z,3.40
2022-09-13T06:36:22.114Z,3.67
2022-09-13T06:37:58.465Z,3.20
2022-09-13T06:39:31.903Z,3.33
2022-09-13T06:41:12.511Z,3.50
2022-09-13T06:42:44.132Z,3.70
2022-09-13T06:44:15.870Z,3.20
2022-09-13T06:45:47.533Z,3.93
2022-09-13T06:47:19.247Z,3.57
2022-09-13T06:48:50.983Z,3.70
2022-09-13T06:50:22.627Z,3.80
2022-09-13T06:51:54.331Z,3.97
2022-09-13T06:53:28.718Z,3.90
2022-09-13T06:55:00.688Z,3.63
2022-09-13T06:56:35.112Z,3.67
2022-09-13T06:58:06.816Z,4.10
2022-09-13T06:59:38.460Z,4.00
2022-09-13T07:01:19.423Z,3.80
2022-09-13T07:02:52.392Z,3.90
2022-09-13T07:04:24.052Z,3.87
2022-09-13T07:05:55.697Z,3.73
2022-09-13T07:07:27.372Z,3.40
2022-09-13T07:09:00.866Z,3.47
2022-09-13T07:10:32.512Z,3.60
2022-09-13T07:12:06.496Z,4.10
2022-09-13T07:13:38.672Z,4.17
2022-09-13T07:15:10.435Z,3.93
2022-09-13T07:16:42.145Z,3.90
2022-09-13T07:18:13.896Z,3.93
2022-09-13T07:19:45.542Z,3.97
2022-09-13T07:21:18.083Z,4.63
2022-09-13T07:22:50.579Z,4.13
2022-09-13T07:24:23.040Z,4.83
2022-09-13T07:26:02.020Z,4.20
2022-09-13T07:27:33.718Z,4.10
2022-09-13T07:29:08.454Z,4.20
2022-09-13T07:30:40.104Z,4.60
2022-09-13T07:32:11.741Z,4.50
2022-09-13T07:33:44.366Z,4.47
2022-09-13T07:35:16.074Z,4.80
2022-09-13T07:36:48.677Z,4.37
2022-09-13T07:38:20.280Z,4.73
2022-09-13T07:39:51.989Z,4.70
2022-09-13T07:41:26.037Z,4.57
2022-09-13T07:42:57.698Z,4.23
2022-09-13T07:44:29.370Z,4.87
2022-09-13T07:46:09.572Z,4.57
2022-09-13T07:47:41.196Z,4.80
2022-09-13T07:49:14.870Z,5.20
2022-09-13T07:51:07.062Z,4.37
2022-09-13T07:52:38.708Z,4.47
2022-09-13T07:54:13.447Z,4.73
2022-09-13T07:55:45.045Z,4.73
2022-09-13T07:57:16.754Z,4.53
2022-09-13T07:58:50.082Z,4.83
2022-09-13T08:00:22.246Z,5.17
2022-09-13T08:01:54.039Z,4.83
2022-09-13T08:03:25.769Z,4.87
2022-09-13T08:04:57.413Z,4.60
2022-09-13T08:06:31.129Z,4.83
2022-09-13T08:08:03.531Z,4.93
2022-09-13T08:09:35.208Z,4.80
2022-09-13T08:11:07.474Z,4.97
2022-09-13T08:12:39.096Z,5.37
2022-09-13T08:14:13.328Z,5.17
2022-09-13T08:15:45.051Z,4.70
2022-09-13T08:17:16.786Z,5.40
2022-09-13T08:18:50.926Z,6.03
2022-09-13T08:20:23.010Z,5.80
2022-09-13T08:21:54.624Z,5.77
2022-09-13T08:23:26.842Z,5.40
2022-09-13T08:24:58.454Z,5.30
2022-09-13T08:26:31.459Z,5.10
2022-09-13T08:28:07.554Z,6.63
2022-09-13T08:29:39.195Z,6.47
2022-09-13T08:31:17.816Z,7.10
2022-09-13T08:32:52.462Z,6.70
2022-09-13T08:34:24.089Z,7.87
2022-09-13T08:35:55.839Z,7.00
2022-09-13T08:37:27.502Z,7.30
2022-09-13T08:39:00.571Z,7.20
2022-09-13T08:40:39.708Z,7.50
2022-09-13T08:42:21.783Z,8.17
2022-09-13T08:44:01.975Z,7.10
2022-09-13T08:45:33.783Z,7.03
2022-09-13T08:47:32.466Z,6.80
2022-09-13T08:49:18.818Z,7.40
2022-09-13T08:50:54.235Z,8.13
2022-09-13T08:52:45.182Z,7.20
2022-09-13T08:54:18.531Z,7.93
2022-09-13T08:56:18.871Z,7.70
2022-09-13T08:57:59.778Z,7.37
2022-09-13T08:59:56.135Z,7.93
2022-09-13T09:01:49.326Z,7.60
2022-09-13T09:03:46.605Z,8.67
2022-09-13T09:05:20.351Z,8.77
2022-09-13T09:07:15.504Z,9.07
2022-09-13T09:09:02.715Z,9.00
2022-09-13T09:10:41.283Z,8.10
2022-09-13T09:12:42.678Z,9.77
2022-09-13T09:14:38.467Z,8.50
2022-09-13T09:16:38.737Z,8.97
2022-09-13T09:18:17.876Z,9.73
2022-09-13T09:19:55.867Z,9.37
2022-09-13T09:21:28.013Z,8.70
2022-09-13T09:23:07.368Z,8.90
2022-09-13T09:24:44.975Z,9.27
2022-09-13T09:26:19.763Z,8.90
2022-09-13T09:27:53.565Z,8.50
2022-09-13T09:29:28.803Z,8.70
2022-09-13T09:31:14.373Z,8.77
2022-09-13T09:33:12.152Z,7.40
2022-09-13T09:34:43.748Z,7.30
2022-09-13T09:36:21.132Z,7.83
2022-09-13T09:38:27.657Z,7.10
2022-09-13T09:40:02.789Z,7.80
2022-09-13T09:41:36.852Z,7.73
2022-09-13T09:43:24.188Z,7.47
2022-09-13T09:45:26.172Z,7.37
2022-09-13T09:47:04.852Z,7.20
2022-09-13T09:48:45.820Z,7.73
2022-09-13T09:50:41.544Z,7.70
2022-09-13T09:52:19.268Z,7.80
2022-09-13T09:53:56.212Z,7.97
2022-09-13T09:55:30.371Z,7.60
2022-09-13T09:57:02.476Z,6.83
2022-09-13T09:58:43.182Z,7.30
2022-09-13T10:00:15.601Z,6.30
2022-09-13T10:01:47.421Z,6.20
2022-09-13T10:03:31.567Z,5.60
2022-09-13T10:05:03.954Z,5.13
2022-09-13T10:06:38.230Z,5.30
2022-09-13T10:08:26.461Z,5.37
2022-09-13T10:10:06.340Z,5.37
2022-09-13T10:11:40.453Z,6.00
2022-09-13T10:13:22.506Z,5.10
2022-09-13T10:15:23.199Z,5.20
2022-09-13T10:17:06.833Z,5.37
2022-09-13T10:18:46.171Z,5.33
2022-09-13T10:20:24.821Z,5.40
2022-09-13T10:22:05.620Z,4.83
2022-09-13T10:23:37.617Z,5.00
2022-09-13T10:25:21.748Z,5.00
2022-09-13T10:26:53.442Z,4.27
2022-09-13T10:28:26.468Z,4.30
2022-09-13T10:30:00.236Z,4.40
2022-09-13T10:31:36.608Z,4.03
2022-09-13T10:33:28.370Z,3.40
2022-09-13T10:35:16.052Z,4.00
2022-09-13T10:36:56.402Z,3.37
2022-09-13T10:38:39.963Z,3.30
2022-09-13T10:40:25.627Z,4.10
2022-09-13T10:42:01.457Z,3.93
2022-09-13T10:43:33.955Z,3.80
2022-09-13T10:45:07.754Z,3.60
2022-09-13T10:46:40.292Z,3.80
2022-09-13T10:48:15.977Z,4.03
2022-09-13T10:49:53.353Z,4.83
2022-09-13T10:51:27.976Z,3.87
2022-09-13T10:53:01.025Z,4.20
2022-09-13T10:54:32.669Z,4.20
2022-09-13T10:56:05.774Z,3.60
2022-09-13T10:57:37.909Z,4.43
2022-09-13T10:59:29.961Z,4.60
2022-09-13T11:01:30.840Z,4.40
2022-09-13T11:03:30.188Z,4.27
2022-09-13T11:05:15.722Z,4.00
2022-09-13T11:07:05.525Z,3.87
2022-09-13T11:08:56.606Z,3.60
2022-09-13T11:10:40.955Z,4.50
2022-09-13T11:12:23.574Z,4.27
2022-09-13T11:14:02.386Z,4.40
2022-09-13T11:15:42.951Z,4.70
2022-09-13T11:17:55.926Z,4.53
2022-09-13T11:20:04.970Z,4.80
2022-09-13T11:21:57.759Z,5.53
2022-09-13T11:23:39.164Z,5.03
2022-09-13T11:25:13.484Z,5.70
2022-09-13T11:27:32.813Z,4.63
2022-09-13T11:29:28.526Z,5.17
2022-09-13T11:31:28.137Z,5.57
2022-09-13T11:33:11.822Z,5.30
2022-09-13T11:34:43.455Z,5.60
2022-09-13T11:36:36.578Z,5.70
2022-09-13T11:38:18.962Z,5.80
2022-09-13T11:39:59.431Z,6.70
2022-09-13T11:41:55.541Z,5.90
2022-09-13T11:43:52.499Z,7.00
2022-09-13T11:46:08.742Z,6.90
2022-09-13T11:47:55.283Z,6.63
2022-09-13T11:49:48.515Z,7.20
2022-09-13T11:51:32.091Z,7.10
2022-09-13T11:53:30.084Z,7.13
2022-09-13T11:55:18.764Z,7.03
2022-09-13T11:57:00.092Z,6.73
2022-09-13T11:58:50.176Z,6.10
2022-09-13T12:00:30.963Z,7.17
2022-09-13T12:02:18.060Z,7.07
2022-09-13T12:04:13.944Z,6.73
2022-09-13T12:05:53.767Z,6.60
2022-09-13T12:07:40.387Z,7.10
2022-09-13T12:09:23.280Z,6.80
2022-09-13T12:11:03.951Z,7.23
2022-09-13T12:12:37.415Z,7.47
2022-09-13T12:14:16.664Z,7.37
2022-09-13T12:15:52.850Z,7.40
2022-09-13T12:17:34.964Z,6.90
2022-09-13T12:19:18.583Z,7.70
2022-09-13T12:21:04.067Z,6.83
2022-09-13T12:22:36.219Z,8.10
2022-09-13T12:24:12.920Z,7.30
2022-09-13T12:25:48.607Z,6.97
2022-09-13T12:27:40.196Z,7.67
2022-09-13T12:29:19.533Z,7.53
2022-09-13T12:31:06.433Z,6.70
2022-09-13T12:32:38.969Z,6.03
2022-09-13T12:34:22.069Z,6.30
2022-09-13T12:36:23.335Z,7.20
2022-09-13T12:38:07.256Z,7.60
2022-09-13T12:40:29.515Z,7.50
2022-09-13T12:42:26.026Z,7.37
2022-09-13T12:44:16.943Z,5.80
2022-09-13T12:46:15.989Z,6.10
2022-09-13T12:48:06.348Z,7.30
2022-09-13T12:50:21.420Z,7.37
2022-09-13T12:52:23.735Z,7.37
2022-09-13T12:54:28.493Z,6.70
2022-09-13T12:56:20.652Z,7.17
2022-09-13T12:58:22.065Z,7.70
2022-09-13T13:00:20.620Z,7.60
2022-09-13T13:01:53.125Z,7.67
2022-09-13T13:03:30.596Z,7.70
2022-09-13T13:05:28.412Z,7.60
2022-09-13T13:07:06.777Z,7.70
2022-09-13T13:08:38.705Z,7.50
2022-09-13T13:10:32.446Z,7.90
2022-09-13T13:12:04.532Z,8.10
2022-09-13T13:13:37.904Z,7.60
2022-09-13T13:15:15.605Z,7.23
2022-09-13T13:16:48.342Z,8.97
2022-09-13T13:18:40.318Z,8.00
2022-09-13T13:20:48.106Z,8.33
2022-09-13T13:22:44.734Z,6.83
2022-09-13T13:24:16.404Z,8.23
2022-09-13T13:26:07.869Z,7.57
2022-09-13T13:27:44.953Z,8.83
2022-09-13T13:29:20.007Z,8.47
2022-09-13T13:30:53.858Z,8.77
2022-09-13T13:32:25.605Z,9.10
2022-09-13T13:34:06.291Z,9.30
2022-09-13T13:35:37.970Z,9.37
2022-09-13T13:37:09.533Z,9.17
2022-09-13T13:38:46.057Z,9.33
2022-09-13T13:40:25.159Z,9.00
2022-09-13T13:42:20.222Z,9.03
2022-09-13T13:43:51.954Z,8.53
2022-09-13T13:45:26.812Z,9.17
2022-09-13T13:47:07.353Z,9.30
2022-09-13T13:48:41.534Z,8.83
2022-09-13T13:50:16.583Z,9.30
2022-09-13T13:52:15.743Z,9.97
2022-09-13T13:53:51.836Z,10.30
2022-09-13T13:55:43.210Z,9.67
2022-09-13T13:57:32.991Z,8.03
2022-09-13T13:59:13.730Z,9.13
2022-09-13T14:00:49.476Z,8.57
2022-09-13T14:02:37.638Z,8.77
2022-09-13T14:04:51.673Z,9.40
2022-09-13T14:06:42.003Z,9.70
2022-09-13T14:08:30.935Z,10.50
2022-09-13T14:10:22.798Z,9.03
2022-09-13T14:12:05.051Z,9.30
2022-09-13T14:14:01.051Z,9.13
2022-09-13T14:15:41.979Z,9.60
2022-09-13T14:17:47.874Z,9.90
2022-09-13T14:19:32.470Z,10.00
2022-09-13T14:21:18.449Z,9.80
2022-09-13T14:22:50.077Z,10.03
2022-09-13T14:24:24.555Z,9.17
2022-09-13T14:25:58.935Z,9.60
2022-09-13T14:27:35.609Z,8.67
2022-09-13T14:29:09.985Z,9.50
2022-09-13T14:30:46.606Z,8.83
2022-09-13T14:32:22.653Z,9.60
2022-09-13T14:33:54.334Z,9.63
2022-09-13T14:35:33.531Z,9.37
2022-09-13T14:37:15.967Z,10.20
2022-09-13T14:38:55.542Z,9.70
2022-09-13T14:40:28.110Z,10.20
2022-09-13T14:42:13.364Z,10.73
2022-09-13T14:43:46.817Z,10.70
2022-09-13T14:45:35.885Z,8.93
2022-09-13T14:47:32.407Z,10.40
2022-09-13T14:49:09.859Z,10.50
2022-09-13T14:50:57.463Z,11.40
2022-09-13T14:52:36.526Z,11.27
2022-09-13T14:54:18.198Z,10.30
2022-09-13T14:55:56.454Z,10.00
2022-09-13T14:57:34.940Z,9.57
2022-09-13T14:59:14.919Z,10.07
2022-09-13T15:00:55.290Z,10.70
2022-09-13T15:02:30.981Z,9.60
2022-09-13T15:04:04.540Z,9.63
2022-09-13T15:05:36.757Z,11.00
2022-09-13T15:07:20.032Z,9.97
2022-09-13T15:08:53.076Z,9.87
2022-09-13T15:10:28.469Z,10.13
2022-09-13T15:12:01.620Z,10.97
2022-09-13T15:13:34.766Z,11.30
2022-09-13T15:15:31.598Z,12.00
2022-09-13T15:17:08.007Z,12.00
2022-09-13T15:18:39.629Z,11.10
2022-09-13T15:20:14.412Z,11.40
2022-09-13T15:21:46.423Z,11.40
2022-09-13T15:23:23.640Z,11.40
2022-09-13T15:24:57.573Z,11.27
2022-09-13T15:26:29.252Z,12.07
2022-09-13T15:28:01.099Z,10.10
2022-09-13T15:29:34.813Z,11.17
2022-09-13T15:31:07.744Z,10.47
2022-09-13T15:32:42.191Z,11.67
2022-09-13T15:34:23.743Z,11.37
2022-09-13T15:36:15.084Z,12.43
2022-09-13T15:37:46.771Z,11.40
2022-09-13T15:39:20.577Z,11.77
2022-09-13T15:41:03.026Z,12.23
2022-09-13T15:42:34.716Z,13.60
2022-09-13T15:44:08.654Z,13.30
2022-09-13T15:45:40.733Z,13.40
2022-09-13T15:47:18.235Z,12.37
2022-09-13T15:48:59.001Z,13.40
2022-09-13T15:50:33.177Z,14.30
2022-09-13T15:52:05.591Z,12.53
2022-09-13T15:53:38.947Z,13.40
2022-09-13T15:55:12.078Z,12.50
2022-09-13T15:56:46.807Z,13.20
2022-09-13T15:58:18.458Z,12.50
2022-09-13T15:59:51.086Z,13.83
2022-09-13T16:01:22.900Z,12.90
2022-09-13T16:02:54.631Z,13.30
2022-09-13T16:04:26.270Z,13.17
2022-09-13T16:05:58.534Z,13.60
2022-09-13T16:07:30.135Z,13.60
2022-09-13T16:09:02.374Z,14.63
2022-09-13T16:10:33.969Z,13.10
2022-09-13T16:12:05.692Z,14.20
2022-09-13T16:13:37.372Z,14.17
2022-09-13T16:15:09.908Z,13.17
2022-09-13T16:16:41.713Z,13.03
2022-09-13T16:18:16.637Z,12.30
2022-09-13T16:19:48.597Z,11.00
2022-09-13T16:21:20.229Z,10.77
2022-09-13T16:22:52.357Z,10.20
2022-09-13T16:24:24.370Z,10.60
2022-09-13T16:25:58.370Z,9.23
2022-09-13T16:27:33.794Z,9.97
2022-09-13T16:29:05.966Z,10.10
2022-09-13T16:30:37.575Z,8.90
2022-09-13T16:32:09.677Z,9.33
2022-09-13T16:33:41.351Z,9.50
2022-09-13T16:35:13.242Z,9.87
2022-09-13T16:36:44.922Z,10.40
2022-09-13T16:38:18.194Z,9.13
2022-09-13T16:39:49.917Z,9.50
2022-09-13T16:41:22.470Z,9.83
2022-09-13T16:42:54.269Z,10.33
2022-09-13T16:44:25.961Z,9.40
2022-09-13T16:45:57.619Z,9.60
2022-09-13T16:47:29.886Z,8.77
2022-09-13T16:49:01.779Z,8.83
2022-09-13T16:50:35.081Z,9.77
2022-09-13T16:52:07.419Z,9.40
2022-09-13T16:53:41.594Z,9.03
2022-09-13T16:55:13.298Z,8.63
2022-09-13T16:56:44.988Z,8.47
2022-09-13T16:58:16.932Z,8.37
2022-09-13T16:59:48.783Z,8.00
2022-09-13T17:01:26.576Z,8.60
2022-09-13T17:02:58.583Z,9.13
2022-09-13T17:04:30.372Z,8.67
2022-09-13T17:06:04.478Z,8.30
2022-09-13T17:07:36.905Z,7.93
2022-09-13T17:09:09.134Z,8.00
2022-09-13T17:10:40.754Z,8.37
2022-09-13T17:12:14.006Z,7.87
2022-09-13T17:13:45.702Z,8.20
2022-09-13T17:15:17.854Z,8.20
2022-09-13T17:16:52.574Z,8.30
2022-09-13T17:18:24.199Z,8.40
2022-09-13T17:19:55.942Z,8.43
2022-09-13T17:21:28.494Z,9.50
2022-09-13T17:23:00.404Z,8.37
2022-09-13T17:24:32.047Z,9.10
2022-09-13T17:26:03.733Z,9.10
2022-09-13T17:27:35.750Z,8.90
2022-09-13T17:29:07.467Z,9.13
2022-09-13T17:30:39.223Z,9.23
2022-09-13T17:32:10.954Z,9.07
2022-09-13T17:33:42.683Z,9.27
2022-09-13T17:35:14.461Z,8.43
2022-09-13T17:36:50.431Z,9.40
2022-09-13T17:38:23.056Z,9.57
2022-09-13T17:39:54.690Z,9.90
2022-09-13T17:41:26.734Z,9.60
2022-09-13T17:42:58.527Z,10.63
2022-09-13T17:44:30.220Z,10.13
2022-09-13T17:46:16.704Z,10.60
2022-09-13T17:47:48.877Z,10.20
2022-09-13T17:49:20.584Z,9.97
2022-09-13T17:50:53.125Z,9.83
2022-09-13T17:52:24.837Z,10.37
2022-09-13T17:54:00.155Z,9.80
2022-09-13T17:55:31.816Z,9.43
2022-09-13T17:57:03.565Z,10.63
2022-09-13T17:58:36.213Z,10.50
2022-09-13T18:00:13.152Z,9.30
2022-09-13T18:01:47.393Z,11.47
2022-09-13T18:03:19.121Z,9.93
2022-09-13T18:04:50.839Z,12.00
2022-09-13T18:06:22.680Z,10.07
2022-09-13T18:07:54.450Z,10.97
2022-09-13T18:09:26.851Z,10.80
2022-09-13T18:11:13.251Z,11.27
2022-09-13T18:12:45.739Z,10.60
2022-09-13T18:14:18.773Z,10.67
2022-09-13T18:16:00.669Z,11.87
2022-09-13T18:17:32.385Z,10.90
2022-09-13T18:19:04.075Z,11.83
2022-09-13T18:20:40.360Z,11.87
2022-09-13T18:22:12.339Z,12.13
2022-09-13T18:23:44.104Z,11.97
2022-09-13T18:25:16.865Z,12.77
2022-09-13T18:26:48.564Z,12.70
2022-09-13T18:28:20.417Z,11.63
2022-09-13T18:29:52.063Z,11.23
2022-09-13T18:31:24.692Z,11.47
2022-09-13T18:32:57.357Z,11.33
2022-09-13T18:34:29.004Z,11.13
2022-09-13T18:36:04.732Z,10.90
2022-09-13T18:37:36.380Z,11.30
2022-09-13T18:39:13.376Z,11.80
2022-09-13T18:40:45.033Z,10.80
2022-09-13T18:42:16.660Z,11.53
2022-09-13T18:43:55.383Z,11.97
2022-09-13T18:45:27.495Z,12.50
2022-09-13T18:47:00.509Z,12.73
2022-09-13T18:48:37.745Z,11.50
2022-09-13T18:50:11.692Z,13.57
2022-09-13T18:51:45.292Z,13.53
2022-09-13T18:53:17.054Z,12.67
2022-09-13T18:54:48.762Z,14.47
2022-09-13T18:56:23.242Z,12.17
2022-09-13T18:57:54.915Z,13.33
2022-09-13T18:59:27.618Z,11.63
2022-09-13T19:01:05.266Z,12.70
2022-09-13T19:02:51.978Z,12.30
2022-09-13T19:04:31.824Z,11.90
2022-09-13T19:06:16.127Z,13.17
2022-09-13T19:07:48.203Z,14.07
2022-09-13T19:09:20.794Z,13.17
2022-09-13T19:10:52.925Z,12.00
2022-09-13T19:12:24.902Z,13.37
2022-09-13T19:13:57.367Z,14.23
2022-09-13T19:15:29.610Z,13.70
2022-09-13T19:17:03.038Z,12.60
2022-09-13T19:18:37.405Z,13.50
2022-09-13T19:20:09.945Z,12.83
2022-09-13T19:21:42.802Z,12.80
2022-09-13T19:23:15.246Z,14.03
2022-09-13T19:24:48.963Z,12.60
2022-09-13T19:26:27.515Z,13.10
2022-09-13T19:28:00.283Z,13.17
2022-09-13T19:29:32.911Z,12.93
2022-09-13T19:31:07.721Z,12.80
2022-09-13T19:32:40.353Z,13.07
2022-09-13T19:34:14.827Z,13.07
2022-09-13T19:35:47.033Z,12.73
2022-09-13T19:37:19.528Z,12.97
2022-09-13T19:38:55.653Z,13.27
2022-09-13T19:40:28.214Z,12.40
2022-09-13T19:42:00.736Z,13.73
2022-09-13T19:43:36.906Z,12.43
2022-09-13T19:45:09.462Z,11.40
2022-09-13T19:46:41.999Z,10.10
2022-09-13T19:48:37.589Z,9.90
2022-09-13T19:50:06.126Z,7.57
2022-09-13T19:51:39.076Z,6.60
2022-09-13T19:53:10.726Z,6.33
2022-09-13T19:54:42.349Z,4.97
2022-09-13T19:56:16.196Z,4.73
2022-09-13T19:57:47.977Z,5.53
2022-09-13T19:59:20.042Z,4.10
2022-09-13T20:01:08.745Z,3.83
2022-09-13T20:02:40.440Z,3.70
2022-09-13T20:04:14.768Z,3.60
2022-09-13T20:05:46.426Z,3.30
2022-09-13T20:07:18.185Z,3.20
2022-09-13T20:08:50.819Z,2.77
2022-09-13T20:10:22.515Z,2.83
2022-09-13T20:12:00.092Z,2.33
2022-09-13T20:13:32.023Z,2.70
2022-09-13T20:15:04.043Z,2.20
2022-09-13T20:16:38.055Z,2.57
2022-09-13T20:18:15.315Z,2.00
2022-09-13T20:19:50.079Z,2.10
2022-09-13T20:21:22.092Z,2.10
2022-09-13T20:22:53.822Z,1.63
2022-09-13T20:24:25.792Z,2.07
2022-09-13T20:25:57.651Z,1.90
2022-09-13T20:27:30.860Z,2.03
2022-09-13T20:29:05.975Z,2.13
2022-09-13T20:30:37.934Z,1.77
2022-09-13T20:32:10.925Z,1.83
2022-09-13T20:33:42.750Z,2.53
2022-09-13T20:35:14.528Z,2.20
2022-09-13T20:36:47.059Z,1.80
2022-09-13T20:38:19.169Z,1.97
2022-09-13T20:39:51.333Z,2.37
2022-09-13T20:41:24.640Z,1.93
2022-09-13T20:42:56.812Z,1.90
2022-09-13T20:44:28.459Z,1.73
2022-09-13T20:46:00.483Z,1.87
2022-09-13T20:47:33.197Z,1.90
2022-09-13T20:49:05.452Z,1.80
2022-09-13T20:50:39.981Z,1.40
2022-09-13T20:52:13.768Z,1.90
2022-09-13T20:53:45.432Z,1.60
2022-09-13T20:55:17.233Z,1.60
2022-09-13T20:56:49.120Z,1.60
2022-09-13T20:58:22.132Z,1.37
2022-09-13T20:59:54.083Z,1.40
2022-09-13T21:01:27.255Z,1.47
2022-09-13T21:02:59.652Z,1.50
2022-09-13T21:04:32.248Z,1.50
2022-09-13T21:06:05.348Z,1.77
2022-09-13T21:07:55.744Z,1.60
2022-09-13T21:09:28.348Z,1.57
2022-09-13T21:11:03.394Z,1.47
2022-09-13T21:12:35.949Z,1.47
2022-09-13T21:14:08.967Z,1.33
2022-09-13T21:15:41.964Z,1.33
2022-09-13T21:17:13.623Z,1.63
2022-09-13T21:18:46.080Z,2.40
2022-09-13T21:20:17.718Z,1.70
2022-09-13T21:21:49.380Z,1.57
2022-09-13T21:23:21.076Z,1.73
2022-09-13T21:24:52.747Z,1.63
2022-09-13T21:26:26.778Z,1.67
2022-09-13T21:27:58.643Z,1.63
2022-09-13T21:29:30.536Z,1.40
2022-09-13T21:31:21.370Z,1.50
2022-09-13T21:32:53.649Z,1.73
2022-09-13T21:34:27.194Z,2.10